createdAt,value
2022-12-16T00:01:24.881Z,70.20
2022-12-16T00:03:55.243Z,66.53
2022-12-16T00:06:24.724Z,74.23
2022-12-16T00:08:55.033Z,72.33
2022-12-16T00:11:23.129Z,76.70
2022-12-16T00:13:51.212Z,70.70
2022-12-16T00:16:22.175Z,69.83
2022-12-16T00:18:51.812Z,63.47
2022-12-16T00:21:20.665Z,62.27
2022-12-16T00:23:49.111Z,67.23
2022-12-16T00:26:18.583Z,64.07
2022-12-16T00:28:46.555Z,70.20
2022-12-16T00:31:14.700Z,64.70
2022-12-16T00:33:42.810Z,70.37
2022-12-16T00:36:11.429Z,65.80
2022-12-16T00:38:39.584Z,62.70
2022-12-16T00:41:08.207Z,69.20
2022-12-16T00:43:37.557Z,64.60
2022-12-16T00:46:05.709Z,71.90
2022-12-16T00:48:33.727Z,67.77
2022-12-16T00:51:01.773Z,74.63
2022-12-16T00:53:29.870Z,67.60
2022-12-16T00:56:04.301Z,69.30
2022-12-16T00:58:32.271Z,67.03
2022-12-16T01:01:01.804Z,72.20
2022-12-16T01:03:30.174Z,64.37
2022-12-16T01:05:58.262Z,72.60
2022-12-16T01:08:26.375Z,70.67
2022-12-16T01:10:55.708Z,67.33
2022-12-16T01:13:25.478Z,72.10
2022-12-16T01:15:53.849Z,74.70
2022-12-16T01:18:23.266Z,73.63
2022-12-16T01:20:51.425Z,73.97
2022-12-16T01:23:20.019Z,75.17
2022-12-16T01:25:53.228Z,67.17
2022-12-16T01:28:21.747Z,74.63
2022-12-16T01:30:49.754Z,72.03
2022-12-16T01:33:18.458Z,70.00
2022-12-16T01:35:56.309Z,75.73
2022-12-16T01:38:24.793Z,71.10
2022-12-16T01:40:52.812Z,69.57
2022-12-16T01:43:26.573Z,80.93
2022-12-16T01:45:58.565Z,78.53
2022-12-16T01:48:35.517Z,87.67
2022-12-16T01:51:09.200Z,79.50
2022-12-16T01:53:39.764Z,82.57
2022-12-16T01:56:08.516Z,78.93
2022-12-16T01:58:39.711Z,84.33
2022-12-16T02:01:09.095Z,79.43
2022-12-16T02:03:38.426Z,79.60
2022-12-16T02:06:08.669Z,81.33
2022-12-16T02:08:36.894Z,74.90
2022-12-16T02:11:29.413Z,82.30
2022-12-16T02:14:12.276Z,78.33
2022-12-16T02:16:47.951Z,81.30
2022-12-16T02:19:36.380Z,82.93
2022-12-16T02:22:21.767Z,79.23
2022-12-16T02:25:26.007Z,84.67
2022-12-16T02:28:02.195Z,80.70
2022-12-16T02:31:07.532Z,71.43
2022-12-16T02:33:58.954Z,71.63
2022-12-16T02:36:41.835Z,76.23
2022-12-16T02:39:15.449Z,73.30
2022-12-16T02:41:48.397Z,71.43
2022-12-16T02:44:18.004Z,72.37
2022-12-16T02:46:53.975Z,71.53
2022-12-16T02:49:49.909Z,76.27
2022-12-16T02:52:21.363Z,78.17
2022-12-16T02:54:51.049Z,69.57
2022-12-16T02:57:37.550Z,61.90
2022-12-16T03:00:07.822Z,67.03
2022-12-16T03:02:46.067Z,68.57
2022-12-16T03:05:19.669Z,72.03
2022-12-16T03:07:50.890Z,76.43
2022-12-16T03:10:22.411Z,74.43
2022-12-16T03:12:50.508Z,70.87
2022-12-16T03:15:23.005Z,77.07
2022-12-16T03:17:55.102Z,69.77
2022-12-16T03:20:27.645Z,71.60
2022-12-16T03:22:58.443Z,73.97
2022-12-16T03:25:28.154Z,69.20
2022-12-16T03:28:04.252Z,65.60
2022-12-16T03:30:37.322Z,79.07
2022-12-16T03:33:11.732Z,76.37
2022-12-16T03:35:44.330Z,82.07
2022-12-16T03:38:14.333Z,87.83
2022-12-16T03:40:44.310Z,104.27
2022-12-16T03:43:14.912Z,93.63
2022-12-16T03:45:46.768Z,86.10
2022-12-16T03:48:17.380Z,83.27
2022-12-16T03:50:45.358Z,81.60
2022-12-16T03:53:13.329Z,75.57
2022-12-16T03:55:41.265Z,76.53
2022-12-16T03:58:09.418Z,73.83
2022-12-16T04:00:37.651Z,76.20
2022-12-16T04:03:05.827Z,70.47
2022-12-16T04:05:35.339Z,72.27
2022-12-16T04:08:03.320Z,76.80
2022-12-16T04:10:48.775Z,68.93
2022-12-16T04:13:34.572Z,73.47
2022-12-16T04:16:20.783Z,72.20
2022-12-16T04:19:07.205Z,79.70
2022-12-16T04:21:55.615Z,69.90
2022-12-16T04:24:28.282Z,65.63
2022-12-16T04:27:15.798Z,84.27
2022-12-16T04:29:58.346Z,70.43
2022-12-16T04:32:26.727Z,67.10
2022-12-16T04:34:54.060Z,67.53
2022-12-16T04:37:41.061Z,69.50
2022-12-16T04:40:27.569Z,65.93
2022-12-16T04:43:09.463Z,68.57
2022-12-16T04:45:55.434Z,64.13
2022-12-16T04:48:40.932Z,67.83
2022-12-16T04:51:26.675Z,71.63
2022-12-16T04:54:13.685Z,69.03
2022-12-16T04:56:58.875Z,72.37
2022-12-16T04:59:44.050Z,72.63
2022-12-16T05:02:37.955Z,70.47
2022-12-16T05:05:24.377Z,70.70
2022-12-16T05:08:09.724Z,67.63
2022-12-16T05:10:56.762Z,66.87
2022-12-16T05:13:41.990Z,66.10
2022-12-16T05:16:27.387Z,69.03
2022-12-16T05:19:12.768Z,58.97
2022-12-16T05:22:06.330Z,63.90
2022-12-16T05:24:53.188Z,64.00
2022-12-16T05:27:40.381Z,61.93
2022-12-16T05:30:33.346Z,62.30
2022-12-16T05:33:19.261Z,67.77
2022-12-16T05:36:04.777Z,61.40
2022-12-16T05:38:50.405Z,63.47
2022-12-16T05:41:35.943Z,65.83
2022-12-16T05:44:23.085Z,67.47
2022-12-16T05:47:08.843Z,68.27
2022-12-16T05:49:53.406Z,63.47
2022-12-16T05:52:39.432Z,61.17
2022-12-16T05:55:29.139Z,69.93
2022-12-16T05:58:19.092Z,66.83
2022-12-16T06:01:05.934Z,62.70
2022-12-16T06:03:51.485Z,63.30
2022-12-16T06:06:37.088Z,64.70
2022-12-16T06:09:22.976Z,59.10
2022-12-16T06:12:08.229Z,59.90
2022-12-16T06:14:53.522Z,57.80
2022-12-16T06:17:41.343Z,57.13
2022-12-16T06:20:27.484Z,64.23
2022-12-16T06:23:13.525Z,64.60
2022-12-16T06:25:59.828Z,62.17
2022-12-16T06:28:46.252Z,63.77
2022-12-16T06:31:31.818Z,61.17
2022-12-16T06:34:18.967Z,60.73
2022-12-16T06:37:06.975Z,59.90
2022-12-16T06:39:53.235Z,65.40
2022-12-16T06:42:38.865Z,61.47
2022-12-16T06:45:27.875Z,58.50
2022-12-16T06:48:15.406Z,60.60
2022-12-16T06:51:02.112Z,63.83
2022-12-16T06:53:47.527Z,70.73
2022-12-16T06:56:33.111Z,71.93
2022-12-16T06:59:18.652Z,68.80
2022-12-16T07:02:04.481Z,66.73
2022-12-16T07:04:50.233Z,64.87
2022-12-16T07:07:37.230Z,67.50
2022-12-16T07:10:23.075Z,64.23
2022-12-16T07:13:17.118Z,70.27
2022-12-16T07:16:02.357Z,71.87
2022-12-16T07:18:47.614Z,63.97
2022-12-16T07:21:33.010Z,65.00
2022-12-16T07:24:19.663Z,71.97
2022-12-16T07:27:05.040Z,67.50
2022-12-16T07:29:55.810Z,79.10
2022-12-16T07:32:41.371Z,71.63
2022-12-16T07:35:35.345Z,64.87
2022-12-16T07:38:20.550Z,62.83
2022-12-16T07:41:08.254Z,69.03
2022-12-16T07:43:53.700Z,69.47
2022-12-16T07:46:39.410Z,65.37
2022-12-16T07:49:25.068Z,62.97
2022-12-16T07:52:10.911Z,68.73
2022-12-16T07:54:56.619Z,67.93
2022-12-16T07:57:43.166Z,68.03
2022-12-16T08:00:29.368Z,63.17
2022-12-16T08:03:14.918Z,67.97
2022-12-16T08:06:00.646Z,71.30
2022-12-16T08:08:46.065Z,68.43
2022-12-16T08:11:31.646Z,66.33
2022-12-16T08:14:18.773Z,69.90
2022-12-16T08:17:04.341Z,76.33
2022-12-16T08:19:49.755Z,72.40
2022-12-16T08:22:35.585Z,69.33
2022-12-16T08:25:20.867Z,68.77
2022-12-16T08:28:11.886Z,69.40
2022-12-16T08:30:59.346Z,65.90
2022-12-16T08:33:44.662Z,74.87
2022-12-16T08:36:30.344Z,77.57
2022-12-16T08:39:16.039Z,72.77
2022-12-16T08:42:01.711Z,71.22
2022-12-16T08:44:47.316Z,71.90
2022-12-16T08:47:34.846Z,64.07
2022-12-16T08:50:20.355Z,69.00
2022-12-16T08:53:05.924Z,67.70
2022-12-16T08:55:51.260Z,62.47
2022-12-16T08:58:41.147Z,66.63
2022-12-16T09:01:26.940Z,68.23
2022-12-16T09:04:14.132Z,72.70
2022-12-16T09:06:59.545Z,76.47
2022-12-16T09:09:45.023Z,71.60
2022-12-16T09:12:30.743Z,79.23
2022-12-16T09:15:16.295Z,83.60
2022-12-16T09:18:02.014Z,73.07
2022-12-16T09:20:48.637Z,78.17
2022-12-16T09:23:34.724Z,67.57
2022-12-16T09:26:25.848Z,68.27
2022-12-16T09:29:11.432Z,74.27
2022-12-16T09:31:57.135Z,65.97
2022-12-16T09:34:42.659Z,63.53
2022-12-16T09:37:29.814Z,61.00
2022-12-16T09:40:15.439Z,67.93
2022-12-16T09:43:07.905Z,63.23
2022-12-16T09:46:03.027Z,65.17
2022-12-16T09:48:57.996Z,71.37
2022-12-16T09:51:44.592Z,67.77
2022-12-16T09:54:35.758Z,78.57
2022-12-16T09:57:23.140Z,58.27
2022-12-16T10:00:15.911Z,73.90
2022-12-16T10:03:07.036Z,67.90
2022-12-16T10:06:02.327Z,66.60
2022-12-16T10:08:55.360Z,69.50
2022-12-16T10:11:57.096Z,73.90
2022-12-16T10:14:49.189Z,66.90
2022-12-16T10:17:41.303Z,67.57
2022-12-16T10:20:33.996Z,69.53
2022-12-16T10:23:27.339Z,62.00
2022-12-16T10:26:16.487Z,63.80
2022-12-16T10:29:06.195Z,69.70
2022-12-16T10:31:52.770Z,71.40
2022-12-16T10:34:42.484Z,89.43
2022-12-16T10:37:30.245Z,74.27
2022-12-16T10:40:19.030Z,76.00
2022-12-16T10:43:22.580Z,72.60
2022-12-16T10:46:12.267Z,75.43
2022-12-16T10:48:58.247Z,88.93
2022-12-16T10:51:47.417Z,74.40
2022-12-16T10:54:49.269Z,69.73
2022-12-16T10:57:46.085Z,74.83
2022-12-16T11:00:34.498Z,72.87
2022-12-16T11:03:41.426Z,73.07
2022-12-16T11:06:28.356Z,83.07
2022-12-16T11:09:14.361Z,78.67
2022-12-16T11:11:59.714Z,62.67
2022-12-16T11:15:05.785Z,82.93
2022-12-16T11:17:53.748Z,83.53
2022-12-16T11:20:44.616Z,83.73
2022-12-16T11:23:36.460Z,89.77
2022-12-16T11:26:33.121Z,77.93
2022-12-16T11:29:28.482Z,80.23
2022-12-16T11:32:19.525Z,82.93
2022-12-16T11:35:10.473Z,82.93
2022-12-16T11:37:59.546Z,78.40
2022-12-16T11:40:46.621Z,90.17
2022-12-16T11:43:35.285Z,98.60
2022-12-16T11:46:25.747Z,80.97
2022-12-16T11:49:21.941Z,79.20
2022-12-16T11:52:35.267Z,75.43
2022-12-16T11:55:41.687Z,84.20
2022-12-16T11:58:38.798Z,76.97
2022-12-16T12:01:32.220Z,94.17
2022-12-16T12:04:17.679Z,81.07
2022-12-16T12:07:25.406Z,74.27
2022-12-16T12:10:28.579Z,83.93
2022-12-16T12:13:19.334Z,96.13
2022-12-16T12:16:14.361Z,90.47
2022-12-16T12:19:20.251Z,80.87
2022-12-16T12:22:11.217Z,99.70
2022-12-16T12:25:04.318Z,97.13
2022-12-16T12:27:56.433Z,83.80
2022-12-16T12:30:44.023Z,86.47
2022-12-16T12:33:43.613Z,85.27
2022-12-16T12:36:38.249Z,79.43
2022-12-16T12:39:37.485Z,72.57
2022-12-16T12:42:36.187Z,69.57
2022-12-16T12:45:42.318Z,85.70
2022-12-16T12:48:34.133Z,78.53
2022-12-16T12:51:51.495Z,74.20
2022-12-16T12:54:48.102Z,85.47
2022-12-16T12:57:36.305Z,77.67
2022-12-16T13:00:24.031Z,85.70
2022-12-16T13:03:18.703Z,82.70
2022-12-16T13:06:08.796Z,84.73
2022-12-16T13:09:15.454Z,94.87
2022-12-16T13:12:34.334Z,89.23
2022-12-16T13:15:24.296Z,93.07
2022-12-16T13:18:48.902Z,86.40
2022-12-16T13:22:04.352Z,93.43
2022-12-16T13:24:56.976Z,86.87
2022-12-16T13:27:43.196Z,89.80
2022-12-16T13:30:41.355Z,89.80
2022-12-16T13:33:40.739Z,93.73
2022-12-16T13:36:28.030Z,95.40
2022-12-16T13:39:16.521Z,93.33
2022-12-16T13:42:16.441Z,91.93
2022-12-16T13:45:18.461Z,105.70
2022-12-16T13:48:23.987Z,101.60
2022-12-16T13:51:18.439Z,100.93
2022-12-16T13:54:10.070Z,101.23
2022-12-16T13:57:00.906Z,91.07
2022-12-16T13:59:51.290Z,106.47
2022-12-16T14:02:49.024Z,113.13
2022-12-16T14:05:40.617Z,109.67
2022-12-16T14:08:33.185Z,106.93
2022-12-16T14:11:21.625Z,104.30
2022-12-16T14:14:17.301Z,112.20
2022-12-16T14:17:14.518Z,115.53
2022-12-16T14:20:12.431Z,116.23
2022-12-16T14:23:09.371Z,120.47
2022-12-16T14:26:04.249Z,122.73
2022-12-16T14:28:53.426Z,128.33
2022-12-16T14:31:47.613Z,133.80
2022-12-16T14:34:39.836Z,122.60
2022-12-16T14:37:31.452Z,117.63
2022-12-16T14:40:16.992Z,115.77
2022-12-16T14:43:02.877Z,125.43
2022-12-16T14:45:51.478Z,123.67
2022-12-16T14:48:49.929Z,138.03
2022-12-16T14:51:46.760Z,141.33
2022-12-16T14:54:41.677Z,127.83
2022-12-16T14:57:33.351Z,124.07
2022-12-16T15:00:21.258Z,129.37
2022-12-16T15:03:09.869Z,128.13
2022-12-16T15:05:58.399Z,134.03
2022-12-16T15:08:45.483Z,131.80
2022-12-16T15:11:34.021Z,141.33
2022-12-16T15:14:21.009Z,133.70
2022-12-16T15:17:08.979Z,124.40
2022-12-16T15:20:03.886Z,132.97
2022-12-16T15:22:51.309Z,124.20
2022-12-16T15:25:39.703Z,132.47
2022-12-16T15:28:42.166Z,130.67
2022-12-16T15:31:42.071Z,122.00
2022-12-16T15:34:51.339Z,127.63
2022-12-16T15:37:43.224Z,118.50
2022-12-16T15:40:42.064Z,121.63
2022-12-16T15:43:44.702Z,140.83
2022-12-16T15:46:38.468Z,146.50
2022-12-16T15:49:25.947Z,122.40
2022-12-16T15:52:26.098Z,114.80
2022-12-16T15:55:13.188Z,116.17
2022-12-16T15:58:14.118Z,117.53
2022-12-16T16:00:59.600Z,115.60
2022-12-16T16:03:47.638Z,121.90
2022-12-16T16:06:36.058Z,115.57
2022-12-16T16:09:31.819Z,126.57
2022-12-16T16:12:17.229Z,122.00
2022-12-16T16:15:03.931Z,118.37
2022-12-16T16:17:49.754Z,109.80
2022-12-16T16:20:36.640Z,118.33
2022-12-16T16:23:22.581Z,117.40
2022-12-16T16:26:08.452Z,113.37
2022-12-16T16:28:53.877Z,123.03
2022-12-16T16:31:40.867Z,125.83
2022-12-16T16:34:26.462Z,119.93
2022-12-16T16:37:13.485Z,120.40
2022-12-16T16:39:59.644Z,127.73
2022-12-16T16:42:45.675Z,117.47
2022-12-16T16:45:31.810Z,120.97
2022-12-16T16:48:28.081Z,127.00
2022-12-16T16:51:14.632Z,129.63
2022-12-16T16:54:00.135Z,141.20
2022-12-16T16:56:47.503Z,132.53
2022-12-16T16:59:33.214Z,136.33
2022-12-16T17:02:18.931Z,129.60
2022-12-16T17:05:05.976Z,131.70
2022-12-16T17:07:53.930Z,116.87
2022-12-16T17:10:39.836Z,125.67
2022-12-16T17:13:27.502Z,121.43
2022-12-16T17:16:13.141Z,124.70
2022-12-16T17:18:58.638Z,130.70
2022-12-16T17:21:45.341Z,134.87
2022-12-16T17:24:30.825Z,119.93
2022-12-16T17:27:16.440Z,112.23
2022-12-16T17:30:02.270Z,105.00
2022-12-16T17:32:48.015Z,122.10
2022-12-16T17:35:33.612Z,118.30
2022-12-16T17:38:20.347Z,125.93
2022-12-16T17:41:10.523Z,125.47
2022-12-16T17:43:56.120Z,122.77
2022-12-16T17:46:45.725Z,136.33
2022-12-16T17:49:31.162Z,130.57
2022-12-16T17:52:16.441Z,134.73
2022-12-16T17:55:03.327Z,115.77
2022-12-16T17:57:49.939Z,122.57
2022-12-16T18:00:36.308Z,121.40
2022-12-16T18:03:22.222Z,124.23
2022-12-16T18:06:14.141Z,111.93
2022-12-16T18:08:59.802Z,122.83
2022-12-16T18:11:46.731Z,113.67
2022-12-16T18:14:32.447Z,111.17
2022-12-16T18:17:17.985Z,113.47
2022-12-16T18:20:03.587Z,112.33
2022-12-16T18:22:51.543Z,114.33
2022-12-16T18:25:36.952Z,112.20
2022-12-16T18:28:23.633Z,109.43
2022-12-16T18:31:09.355Z,102.73
2022-12-16T18:33:55.129Z,110.97
2022-12-16T18:36:40.339Z,107.50
2022-12-16T18:39:25.765Z,124.23
2022-12-16T18:42:11.316Z,118.80
2022-12-16T18:45:01.237Z,116.67
2022-12-16T18:47:47.422Z,140.73
2022-12-16T18:50:37.720Z,135.50
2022-12-16T18:53:24.404Z,113.43
2022-12-16T18:56:18.420Z,119.70
2022-12-16T18:59:04.150Z,114.97
2022-12-16T19:01:51.388Z,120.47
2022-12-16T19:04:36.756Z,116.00
2022-12-16T19:07:22.290Z,116.53
2022-12-16T19:10:07.753Z,115.20
2022-12-16T19:12:53.446Z,130.50
2022-12-16T19:15:41.533Z,112.77
2022-12-16T19:18:29.848Z,111.53
2022-12-16T19:21:16.262Z,132.97
2022-12-16T19:27:17.331Z,135.57
2022-12-16T19:30:03.046Z,123.77
2022-12-16T19:32:48.350Z,128.27
2022-12-16T19:35:35.110Z,118.50
2022-12-16T19:38:20.787Z,107.80
2022-12-16T19:41:10.288Z,115.40
2022-12-16T19:44:01.739Z,115.00
2022-12-16T19:46:51.588Z,119.33
2022-12-16T19:49:42.446Z,124.07
2022-12-16T19:52:31.060Z,115.00
2022-12-16T19:55:18.756Z,105.87
2022-12-16T19:58:04.416Z,116.07
2022-12-16T20:00:49.725Z,114.93
2022-12-16T20:03:36.281Z,118.43
2022-12-16T20:06:24.352Z,120.93
2022-12-16T20:09:12.206Z,130.20
2022-12-16T20:11:58.301Z,118.33
2022-12-16T20:14:49.274Z,115.73
2022-12-16T20:17:34.896Z,113.70
2022-12-16T20:20:20.443Z,117.63
2022-12-16T20:23:05.852Z,120.33
2022-12-16T20:25:52.516Z,120.50
2022-12-16T20:28:41.581Z,122.83
2022-12-16T20:31:27.218Z,119.30
2022-12-16T20:34:13.115Z,125.70
2022-12-16T20:36:58.875Z,120.63
2022-12-16T20:42:51.381Z,137.07
2022-12-16T20:45:39.230Z,133.97
2022-12-16T20:48:24.926Z,156.30
2022-12-16T20:51:13.960Z,150.90
2022-12-16T20:53:59.786Z,166.93
2022-12-16T20:56:45.543Z,164.37
2022-12-16T20:59:32.344Z,161.00
2022-12-16T21:02:29.051Z,168.27
2022-12-16T21:05:15.091Z,154.70
2022-12-16T21:08:00.353Z,151.60
2022-12-16T21:10:46.197Z,149.67
2022-12-16T21:13:33.919Z,135.27
2022-12-16T21:16:23.833Z,110.77
2022-12-16T21:19:09.499Z,121.37
2022-12-16T21:21:55.019Z,118.20
2022-12-16T21:24:42.320Z,114.97
2022-12-16T21:27:27.951Z,134.87
2022-12-16T21:30:15.580Z,136.00
2022-12-16T21:33:02.350Z,124.27
2022-12-16T21:35:47.883Z,121.33
2022-12-16T21:38:33.474Z,119.50
2022-12-16T21:41:19.070Z,113.07
2022-12-16T21:44:04.686Z,116.30
2022-12-16T21:46:50.129Z,107.53
2022-12-16T21:49:36.874Z,118.63
2022-12-16T21:52:27.929Z,118.53
2022-12-16T21:55:13.306Z,118.47
2022-12-16T21:58:03.343Z,126.57
2022-12-16T22:00:50.304Z,123.33
2022-12-16T22:03:39.517Z,134.17
2022-12-16T22:06:26.794Z,134.13
2022-12-16T22:09:12.167Z,119.73
2022-12-16T22:11:57.534Z,127.47
2022-12-16T22:14:42.799Z,117.70
2022-12-16T22:17:28.660Z,122.90
2022-12-16T22:20:14.256Z,127.60
2022-12-16T22:23:01.015Z,128.17
2022-12-16T22:25:46.588Z,116.37
2022-12-16T22:28:32.160Z,125.93
2022-12-16T22:31:17.905Z,115.27
2022-12-16T22:34:06.736Z,114.33
2022-12-16T22:36:21.217Z,118.03
2022-12-16T22:36:52.198Z,112.53
2022-12-16T22:39:45.112Z,124.37
2022-12-16T22:42:30.895Z,122.47
2022-12-16T22:45:16.504Z,124.17
2022-12-16T22:48:16.561Z,110.27
2022-12-16T22:51:02.216Z,110.90
2022-12-16T22:53:47.696Z,106.00
2022-12-16T22:56:34.607Z,115.73
2022-12-16T22:59:19.831Z,119.10
2022-12-16T23:02:05.277Z,114.17
2022-12-16T23:04:51.210Z,111.90
2022-12-16T23:07:37.662Z,111.87
2022-12-16T23:10:24.213Z,102.47
2022-12-16T23:13:11.038Z,121.70
2022-12-16T23:15:56.733Z,112.53
2022-12-16T23:18:42.228Z,116.37
2022-12-16T23:21:33.838Z,101.70
2022-12-16T23:24:19.224Z,108.67
2022-12-16T23:27:06.949Z,107.70
2022-12-16T23:29:53.991Z,102.73
2022-12-16T23:32:42.554Z,109.03
2022-12-16T23:35:27.958Z,103.67
2022-12-16T23:38:21.326Z,106.10
2022-12-16T23:41:05.882Z,107.70
2022-12-16T23:43:51.474Z,98.00
2022-12-16T23:46:38.722Z,104.40
2022-12-16T23:49:24.357Z,98.30
2022-12-16T23:52:09.876Z,105.57
2022-12-16T23:54:55.220Z,102.33
2022-12-16T23:57:41.995Z,107.87
